createdAt,value
2023-11-15T10:40:48.014Z,0.77
2023-11-15T10:43:18.594Z,1.10
2023-11-15T10:45:47.266Z,1.30
2023-11-15T10:48:22.153Z,0.82
2023-11-15T10:50:58.285Z,1.33
2023-11-15T10:53:28.271Z,0.90
2023-11-15T10:55:58.798Z,1.23
2023-11-15T10:58:27.736Z,1.00
2023-11-15T11:00:56.602Z,2.50
2023-11-15T11:03:26.538Z,1.63
2023-11-15T11:06:05.146Z,0.88
2023-11-15T11:08:55.607Z,1.52
2023-11-15T11:11:34.968Z,1.20
2023-11-15T11:14:22.357Z,2.22
2023-11-15T11:16:50.741Z,1.23
2023-11-15T11:19:28.407Z,2.20
2023-11-15T11:22:18.945Z,2.55
2023-11-15T11:25:08.471Z,1.58
2023-11-15T11:27:38.147Z,2.08
2023-11-15T11:30:14.810Z,1.10
2023-11-15T11:32:45.894Z,1.25
2023-11-15T11:35:21.814Z,0.95
2023-11-15T11:37:57.079Z,1.40
2023-11-15T11:40:29.808Z,1.20
2023-11-15T11:43:12.275Z,1.10
2023-11-15T11:45:42.309Z,0.90
2023-11-15T11:48:37.986Z,0.98
2023-11-15T11:51:07.321Z,0.80
2023-11-15T11:53:48.197Z,1.10
2023-11-15T11:56:15.946Z,4.80
2023-11-15T11:58:44.110Z,1.30
2023-11-15T12:01:12.906Z,1.77
2023-11-15T12:03:49.093Z,0.82
2023-11-15T12:06:19.315Z,1.90
2023-11-15T12:08:50.518Z,1.52
2023-11-15T12:11:21.428Z,1.40
2023-11-15T12:13:51.960Z,1.10
2023-11-15T12:16:26.880Z,0.90
2023-11-15T12:19:02.788Z,1.30
2023-11-15T12:21:36.838Z,1.38
2023-11-15T12:24:11.398Z,1.10
2023-11-15T12:26:47.842Z,1.13
2023-11-15T12:29:27.907Z,0.90
2023-11-15T12:31:57.912Z,0.90
2023-11-15T12:34:26.193Z,0.82
2023-11-15T12:36:54.125Z,1.00
2023-11-15T12:39:23.466Z,1.10
2023-11-15T12:41:54.518Z,1.55
2023-11-15T12:44:22.702Z,1.33
2023-11-15T12:46:52.420Z,1.20
2023-11-15T12:49:27.339Z,1.23
2023-11-15T12:51:55.646Z,1.17
2023-11-15T12:54:23.222Z,1.85
2023-11-15T12:57:14.140Z,0.93
2023-11-15T12:59:43.473Z,1.42
2023-11-15T13:02:18.619Z,1.30
2023-11-15T13:04:51.865Z,0.95
2023-11-15T13:07:19.712Z,1.10
2023-11-15T13:09:47.784Z,1.70
2023-11-15T13:12:25.914Z,1.13
2023-11-15T13:14:54.760Z,1.00
2023-11-15T13:17:22.399Z,1.17
2023-11-15T13:19:50.119Z,1.10
2023-11-15T13:22:17.781Z,1.33
2023-11-15T13:24:49.975Z,1.17
2023-11-15T13:27:19.193Z,1.23
2023-11-15T13:29:47.117Z,1.00
2023-11-15T13:32:15.760Z,1.20
2023-11-15T13:34:45.911Z,1.13
2023-11-15T13:37:16.328Z,1.02
2023-11-15T13:39:43.824Z,1.13
2023-11-15T13:42:11.865Z,1.30
2023-11-15T13:44:39.788Z,1.10
2023-11-15T13:47:08.193Z,1.10
2023-11-15T13:49:35.780Z,1.20
2023-11-15T13:52:03.373Z,1.20
2023-11-15T13:54:31.780Z,1.20
2023-11-15T13:56:59.545Z,1.15
2023-11-15T13:59:29.541Z,1.10
2023-11-15T14:01:57.153Z,1.15
2023-11-15T14:04:24.703Z,1.20
2023-11-15T14:06:53.718Z,1.10
2023-11-15T14:09:25.920Z,1.00
2023-11-15T14:11:53.580Z,0.98
2023-11-15T14:14:21.110Z,1.20
2023-11-15T14:16:48.661Z,1.10
2023-11-15T14:19:16.820Z,1.55
2023-11-15T14:21:45.577Z,1.92
2023-11-15T14:24:13.288Z,1.67
2023-11-15T14:26:41.127Z,1.50
2023-11-15T14:29:09.839Z,1.35
2023-11-15T14:31:39.080Z,1.33
2023-11-15T14:34:08.565Z,1.30
2023-11-15T14:36:38.578Z,1.45
2023-11-15T14:39:08.766Z,1.80
2023-11-15T14:41:36.461Z,2.15
2023-11-15T14:44:05.176Z,1.65
2023-11-15T14:46:34.126Z,1.38
2023-11-15T14:49:01.816Z,1.92
2023-11-15T14:51:29.545Z,1.40
2023-11-15T14:53:57.303Z,2.20
2023-11-15T14:56:25.253Z,2.42
2023-11-15T14:58:54.546Z,4.53
2023-11-15T15:01:24.862Z,2.08
2023-11-15T15:03:53.532Z,4.20
2023-11-15T15:06:21.395Z,3.10
2023-11-15T15:08:49.011Z,1.80
2023-11-15T15:11:16.594Z,3.15
2023-11-15T15:13:44.116Z,5.55
2023-11-15T15:16:12.999Z,2.88
2023-11-15T15:18:41.793Z,1.60
2023-11-15T15:21:11.036Z,2.05
2023-11-15T15:23:38.760Z,1.90
2023-11-15T15:26:06.546Z,2.42
2023-11-15T15:28:34.487Z,2.70
2023-11-15T15:31:02.221Z,1.20
2023-11-15T15:33:30.134Z,1.70
2023-11-15T15:35:58.671Z,1.77
2023-11-15T15:38:26.958Z,1.50
2023-11-15T15:40:55.474Z,1.50
2023-11-15T15:43:23.072Z,1.60
2023-11-15T15:45:50.708Z,1.52
2023-11-15T15:48:19.095Z,1.67
2023-11-15T15:50:48.689Z,1.70
2023-11-15T15:53:16.213Z,2.55
2023-11-15T15:55:44.382Z,1.70
2023-11-15T15:58:12.081Z,1.50
2023-11-15T16:00:39.712Z,1.58
2023-11-15T16:03:07.472Z,1.73
2023-11-15T16:05:35.081Z,1.40
2023-11-15T16:08:02.727Z,1.52
2023-11-15T16:10:30.327Z,1.40
2023-11-15T16:12:58.686Z,1.55
2023-11-15T16:15:26.713Z,1.30
2023-11-15T16:17:55.500Z,1.38
2023-11-15T16:20:23.188Z,1.17
2023-11-15T16:22:52.710Z,1.52
2023-11-15T16:25:20.374Z,1.30
2023-11-15T16:27:47.953Z,1.70
2023-11-15T16:30:15.751Z,1.70
2023-11-15T16:32:44.069Z,1.63
2023-11-15T16:35:11.885Z,1.50
2023-11-15T16:37:42.869Z,1.85
2023-11-15T16:40:11.529Z,2.00
2023-11-15T16:42:40.228Z,1.88
2023-11-15T16:45:09.677Z,1.40
2023-11-15T16:47:40.142Z,1.50
2023-11-15T16:50:09.084Z,1.67
2023-11-15T16:52:36.882Z,2.20
2023-11-15T16:55:06.671Z,1.63
2023-11-15T16:57:34.750Z,3.03
2023-11-15T17:00:02.617Z,1.60
2023-11-15T17:02:31.055Z,2.10
2023-11-15T17:04:58.640Z,1.30
2023-11-15T17:07:26.168Z,1.90
2023-11-15T17:09:53.831Z,1.92
2023-11-15T17:12:24.438Z,2.25
2023-11-15T17:14:52.578Z,1.60
2023-11-15T17:17:20.172Z,2.47
2023-11-15T17:19:47.827Z,1.48
2023-11-15T17:22:15.521Z,2.22
2023-11-15T17:24:44.203Z,1.67
2023-11-15T17:27:11.959Z,1.48
2023-11-15T17:29:40.680Z,1.55
2023-11-15T17:32:08.474Z,2.40
2023-11-15T17:34:37.199Z,2.13
2023-11-15T17:37:04.759Z,2.33
2023-11-15T17:39:32.464Z,2.55
2023-11-15T17:42:00.089Z,2.58
2023-11-15T17:44:27.946Z,1.90
2023-11-15T17:46:55.818Z,2.10
2023-11-15T17:49:23.479Z,2.13
2023-11-15T17:51:51.004Z,3.30
2023-11-15T17:54:19.942Z,3.03
2023-11-15T17:56:47.695Z,2.83
2023-11-15T17:59:15.381Z,7.50
2023-11-15T18:01:43.962Z,3.38
2023-11-15T18:04:15.063Z,2.00
2023-11-15T18:06:43.241Z,6.70
2023-11-15T18:09:11.532Z,2.85
2023-11-15T18:11:39.560Z,6.70
2023-11-15T18:14:07.409Z,2.95
2023-11-15T18:16:35.326Z,4.57
2023-11-15T18:19:08.768Z,2.10
2023-11-15T18:21:36.991Z,1.77
2023-11-15T18:24:04.806Z,2.30
2023-11-15T18:26:33.762Z,2.38
2023-11-15T18:29:01.655Z,4.20
2023-11-15T18:31:29.622Z,2.95
2023-11-15T18:33:59.133Z,2.22
2023-11-15T18:36:27.486Z,2.13
2023-11-15T18:38:55.737Z,2.28
2023-11-15T18:41:23.508Z,2.10
2023-11-15T18:43:51.172Z,2.05
2023-11-15T18:46:18.885Z,1.90
2023-11-15T18:48:48.753Z,2.50
2023-11-15T18:51:23.125Z,2.08
2023-11-15T18:53:51.293Z,1.70
2023-11-15T18:56:19.285Z,2.88
2023-11-15T18:58:47.002Z,2.67
2023-11-15T19:01:14.785Z,2.00
2023-11-15T19:03:44.289Z,2.53
2023-11-15T19:06:11.999Z,2.05
2023-11-15T19:08:42.362Z,2.65
2023-11-15T19:11:10.088Z,2.90
2023-11-15T19:13:38.381Z,2.25
2023-11-15T19:16:08.705Z,3.20
2023-11-15T19:18:36.390Z,3.92
2023-11-15T19:21:04.987Z,2.00
2023-11-15T19:23:33.075Z,2.45
2023-11-15T19:26:00.781Z,2.20
2023-11-15T19:28:28.347Z,3.95
2023-11-15T19:30:55.856Z,12.35
2023-11-15T19:33:23.796Z,15.65
2023-11-15T19:35:51.733Z,10.40
2023-11-15T19:38:20.202Z,6.88
2023-11-15T19:40:48.250Z,7.20
2023-11-15T19:43:16.096Z,22.92
2023-11-15T19:45:43.701Z,17.27
2023-11-15T19:48:12.285Z,16.00
2023-11-15T19:50:41.162Z,14.75
2023-11-15T19:53:08.969Z,12.98
2023-11-15T19:55:36.935Z,11.18
2023-11-15T19:58:05.932Z,6.13
2023-11-15T20:00:36.864Z,5.88
2023-11-15T20:03:08.723Z,5.03
2023-11-15T20:05:39.952Z,4.45
2023-11-15T20:08:08.947Z,3.20
2023-11-15T20:10:37.346Z,5.10
2023-11-15T20:13:06.530Z,2.90
2023-11-15T20:15:35.028Z,2.65
2023-11-15T20:18:03.547Z,2.63
2023-11-15T20:20:32.562Z,2.78
2023-11-15T20:23:01.581Z,3.40
2023-11-15T20:25:29.734Z,3.60
2023-11-15T20:27:57.421Z,3.33
2023-11-15T20:30:26.913Z,3.00
2023-11-15T20:32:56.534Z,4.50
2023-11-15T20:35:24.767Z,2.72
2023-11-15T20:37:52.825Z,3.10
2023-11-15T20:40:23.301Z,2.40
2023-11-15T20:42:51.171Z,2.60
2023-11-15T20:45:18.750Z,2.70
2023-11-15T20:47:46.585Z,3.70
2023-11-15T20:50:14.495Z,2.38
2023-11-15T20:52:42.378Z,2.33
2023-11-15T20:55:13.778Z,5.82
2023-11-15T20:57:41.384Z,4.82
2023-11-15T21:00:14.375Z,3.33
2023-11-15T21:02:42.151Z,1.90
2023-11-15T21:05:11.948Z,2.10
2023-11-15T21:07:40.627Z,1.90
2023-11-15T21:10:08.993Z,2.53
2023-11-15T21:12:37.106Z,1.90
2023-11-15T21:15:06.227Z,1.70
2023-11-15T21:17:34.120Z,1.73
2023-11-15T21:20:11.190Z,1.98
2023-11-15T21:22:45.930Z,1.85
2023-11-15T21:25:14.011Z,1.77
2023-11-15T21:27:43.187Z,1.95
2023-11-15T21:30:13.249Z,2.00
2023-11-15T21:32:42.379Z,1.60
2023-11-15T21:35:11.893Z,1.95
2023-11-15T21:37:43.522Z,2.03
2023-11-15T21:40:15.283Z,1.90
2023-11-15T21:42:45.707Z,1.80
2023-11-15T21:45:14.846Z,2.65
2023-11-15T21:47:43.940Z,2.60
2023-11-15T21:50:16.056Z,3.53
2023-11-15T21:52:44.568Z,2.33
2023-11-15T21:55:12.291Z,5.18
2023-11-15T21:57:39.937Z,2.10
2023-11-15T22:00:10.153Z,2.17
2023-11-15T22:02:37.801Z,1.80
2023-11-15T22:05:06.253Z,1.80
2023-11-15T22:07:33.869Z,18.83
2023-11-15T22:10:01.442Z,1.90
2023-11-15T22:12:29.005Z,2.25
2023-11-15T22:14:56.705Z,1.98
2023-11-15T22:17:24.240Z,3.28
2023-11-15T22:19:52.242Z,2.60
2023-11-15T22:22:19.754Z,1.90
2023-11-15T22:24:47.777Z,1.95
2023-11-15T22:27:15.478Z,2.38
2023-11-15T22:29:43.145Z,2.08
2023-11-15T22:32:10.664Z,2.08
2023-11-15T22:34:38.276Z,2.38
2023-11-15T22:37:08.027Z,2.33
2023-11-15T22:39:35.679Z,2.10
2023-11-15T22:42:04.478Z,3.05
2023-11-15T22:44:31.977Z,2.38
2023-11-15T22:46:59.656Z,2.35
2023-11-15T22:49:27.208Z,2.22
2023-11-15T22:51:54.855Z,2.30
2023-11-15T22:54:22.421Z,2.47
2023-11-15T22:56:50.070Z,2.28
2023-11-15T22:59:17.657Z,2.20
2023-11-15T23:01:45.775Z,2.50
2023-11-15T23:04:16.661Z,2.20
2023-11-15T23:06:48.485Z,2.70
2023-11-15T23:09:16.647Z,2.75
2023-11-15T23:11:44.253Z,2.42
2023-11-15T23:14:11.820Z,3.05
2023-11-15T23:16:41.491Z,2.85
2023-11-15T23:19:09.480Z,3.78
2023-11-15T23:21:38.457Z,2.80
2023-11-15T23:24:07.692Z,2.70
2023-11-15T23:26:35.373Z,2.00
2023-11-15T23:29:02.964Z,2.75
2023-11-15T23:31:30.622Z,2.40
2023-11-15T23:33:58.195Z,3.25
2023-11-15T23:36:25.901Z,2.50
2023-11-15T23:38:53.795Z,3.05
2023-11-15T23:41:21.383Z,3.58
2023-11-15T23:43:50.754Z,2.97
2023-11-15T23:46:19.117Z,11.85
2023-11-15T23:48:46.793Z,7.20
2023-11-15T23:51:14.439Z,6.38
2023-11-15T23:53:42.121Z,5.15
2023-11-15T23:56:11.228Z,4.80
2023-11-15T23:58:38.851Z,2.53
